sensor_id;sensor_type;location;lat;lon;timestamp;P1;durP1;ratioP1;P2;durP2;ratioP2
52554;SDS011;38455;52.710;6.502;2022-08-26T00:00:28;46.67;;;31.38;;
52554;SDS011;38455;52.710;6.502;2022-08-26T00:02:54;41.95;;;31.55;;
52554;SDS011;38455;52.710;6.502;2022-08-26T00:05:20;44.92;;;33.13;;
52554;SDS011;38455;52.710;6.502;2022-08-26T00:07:46;45.08;;;34.33;;
52554;SDS011;38455;52.710;6.502;2022-08-26T00:10:12;49.35;;;34.38;;
52554;SDS011;38455;52.710;6.502;2022-08-26T00:12:39;46.47;;;35.47;;
52554;SDS011;38455;52.710;6.502;2022-08-26T00:15:06;45.67;;;33.75;;
52554;SDS011;38455;52.710;6.502;2022-08-26T00:17:33;46.08;;;33.75;;
52554;SDS011;38455;52.710;6.502;2022-08-26T00:19:59;52.38;;;37.50;;
52554;SDS011;38455;52.710;6.502;2022-08-26T00:22:24;50.53;;;36.97;;
52554;SDS011;38455;52.710;6.502;2022-08-26T00:24:50;52.63;;;38.15;;
52554;SDS011;38455;52.710;6.502;2022-08-26T00:27:16;55.60;;;39.08;;
52554;SDS011;38455;52.710;6.502;2022-08-26T00:29:41;52.85;;;38.22;;
52554;SDS011;38455;52.710;6.502;2022-08-26T00:32:07;51.30;;;37.25;;
52554;SDS011;38455;52.710;6.502;2022-08-26T00:34:33;56.30;;;39.25;;
52554;SDS011;38455;52.710;6.502;2022-08-26T00:36:59;51.22;;;35.78;;
52554;SDS011;38455;52.710;6.502;2022-08-26T00:39:25;55.20;;;38.50;;
52554;SDS011;38455;52.710;6.502;2022-08-26T00:41:50;51.30;;;36.88;;
52554;SDS011;38455;52.710;6.502;2022-08-26T00:44:16;60.25;;;37.33;;
52554;SDS011;38455;52.710;6.502;2022-08-26T00:46:43;48.88;;;35.28;;
52554;SDS011;38455;52.710;6.502;2022-08-26T00:49:13;45.42;;;34.03;;
52554;SDS011;38455;52.710;6.502;2022-08-26T00:51:48;50.78;;;31.50;;
52554;SDS011;38455;52.710;6.502;2022-08-26T00:54:20;46.88;;;32.03;;
52554;SDS011;38455;52.710;6.502;2022-08-26T00:56:58;51.33;;;32.58;;
52554;SDS011;38455;52.710;6.502;2022-08-26T00:59:27;52.47;;;32.08;;
52554;SDS011;38455;52.710;6.502;2022-08-26T01:01:55;45.97;;;31.30;;
52554;SDS011;38455;52.710;6.502;2022-08-26T01:04:21;47.85;;;31.45;;
52554;SDS011;38455;52.710;6.502;2022-08-26T01:06:49;46.13;;;29.83;;
52554;SDS011;38455;52.710;6.502;2022-08-26T01:09:17;40.60;;;29.33;;
52554;SDS011;38455;52.710;6.502;2022-08-26T01:11:44;42.50;;;28.10;;
52554;SDS011;38455;52.710;6.502;2022-08-26T01:14:11;41.15;;;28.48;;
52554;SDS011;38455;52.710;6.502;2022-08-26T01:16:37;42.70;;;29.83;;
52554;SDS011;38455;52.710;6.502;2022-08-26T01:19:14;44.30;;;28.65;;
52554;SDS011;38455;52.710;6.502;2022-08-26T01:21:47;40.13;;;26.83;;
52554;SDS011;38455;52.710;6.502;2022-08-26T01:24:19;34.75;;;24.95;;
52554;SDS011;38455;52.710;6.502;2022-08-26T01:26:45;44.35;;;26.67;;
52554;SDS011;38455;52.710;6.502;2022-08-26T01:29:13;45.92;;;27.90;;
52554;SDS011;38455;52.710;6.502;2022-08-26T01:31:42;40.95;;;25.23;;
52554;SDS011;38455;52.710;6.502;2022-08-26T01:34:21;39.72;;;25.75;;
52554;SDS011;38455;52.710;6.502;2022-08-26T01:36:50;39.47;;;25.30;;
52554;SDS011;38455;52.710;6.502;2022-08-26T01:39:21;41.08;;;24.92;;
52554;SDS011;38455;52.710;6.502;2022-08-26T01:41:46;32.15;;;23.10;;
52554;SDS011;38455;52.710;6.502;2022-08-26T01:44:19;38.80;;;24.10;;
52554;SDS011;38455;52.710;6.502;2022-08-26T01:46:48;33.83;;;23.55;;
52554;SDS011;38455;52.710;6.502;2022-08-26T01:49:15;39.40;;;24.05;;
52554;SDS011;38455;52.710;6.502;2022-08-26T01:51:42;35.58;;;21.70;;
52554;SDS011;38455;52.710;6.502;2022-08-26T01:54:08;32.40;;;22.17;;
52554;SDS011;38455;52.710;6.502;2022-08-26T01:56:35;30.92;;;22.50;;
52554;SDS011;38455;52.710;6.502;2022-08-26T01:59:02;32.55;;;20.98;;
52554;SDS011;38455;52.710;6.502;2022-08-26T02:01:30;32.50;;;21.23;;
52554;SDS011;38455;52.710;6.502;2022-08-26T02:04:02;31.70;;;21.30;;
52554;SDS011;38455;52.710;6.502;2022-08-26T02:06:47;27.05;;;18.48;;
52554;SDS011;38455;52.710;6.502;2022-08-26T02:09:13;30.77;;;20.50;;
52554;SDS011;38455;52.710;6.502;2022-08-26T02:11:40;33.00;;;19.52;;
52554;SDS011;38455;52.710;6.502;2022-08-26T02:14:14;30.70;;;18.38;;
52554;SDS011;38455;52.710;6.502;2022-08-26T02:16:46;31.45;;;18.77;;
52554;SDS011;38455;52.710;6.502;2022-08-26T02:19:25;31.15;;;18.77;;
52554;SDS011;38455;52.710;6.502;2022-08-26T02:21:54;28.77;;;17.42;;
52554;SDS011;38455;52.710;6.502;2022-08-26T02:24:23;26.20;;;17.17;;
52554;SDS011;38455;52.710;6.502;2022-08-26T02:26:51;31.27;;;17.15;;
52554;SDS011;38455;52.710;6.502;2022-08-26T02:31:51;30.85;;;18.88;;
52554;SDS011;38455;52.710;6.502;2022-08-26T02:34:21;28.75;;;15.70;;
52554;SDS011;38455;52.710;6.502;2022-08-26T02:36:49;32.33;;;16.35;;
52554;SDS011;38455;52.710;6.502;2022-08-26T02:39:15;26.55;;;16.52;;
52554;SDS011;38455;52.710;6.502;2022-08-26T02:41:42;24.05;;;15.70;;
52554;SDS011;38455;52.710;6.502;2022-08-26T02:44:08;24.80;;;14.45;;
52554;SDS011;38455;52.710;6.502;2022-08-26T02:46:34;28.58;;;14.70;;
52554;SDS011;38455;52.710;6.502;2022-08-26T02:49:00;27.52;;;15.65;;
52554;SDS011;38455;52.710;6.502;2022-08-26T02:51:26;22.90;;;13.43;;
52554;SDS011;38455;52.710;6.502;2022-08-26T02:53:52;19.00;;;12.55;;
52554;SDS011;38455;52.710;6.502;2022-08-26T02:56:17;19.85;;;12.45;;
52554;SDS011;38455;52.710;6.502;2022-08-26T02:58:43;21.90;;;12.43;;
52554;SDS011;38455;52.710;6.502;2022-08-26T03:01:22;25.80;;;13.77;;
52554;SDS011;38455;52.710;6.502;2022-08-26T03:03:49;18.48;;;12.20;;
52554;SDS011;38455;52.710;6.502;2022-08-26T03:06:15;22.70;;;11.82;;
52554;SDS011;38455;52.710;6.502;2022-08-26T03:08:41;19.83;;;11.80;;
52554;SDS011;38455;52.710;6.502;2022-08-26T03:11:07;19.13;;;11.10;;
52554;SDS011;38455;52.710;6.502;2022-08-26T03:13:32;19.15;;;10.90;;
52554;SDS011;38455;52.710;6.502;2022-08-26T03:16:00;20.17;;;11.85;;
52554;SDS011;38455;52.710;6.502;2022-08-26T03:18:26;23.42;;;10.73;;
52554;SDS011;38455;52.710;6.502;2022-08-26T03:20:52;19.00;;;9.98;;
52554;SDS011;38455;52.710;6.502;2022-08-26T03:23:18;19.35;;;11.15;;
52554;SDS011;38455;52.710;6.502;2022-08-26T03:25:47;20.70;;;11.25;;
52554;SDS011;38455;52.710;6.502;2022-08-26T03:28:14;18.73;;;10.95;;
52554;SDS011;38455;52.710;6.502;2022-08-26T03:30:40;18.25;;;10.52;;
52554;SDS011;38455;52.710;6.502;2022-08-26T03:33:07;18.40;;;11.23;;
52554;SDS011;38455;52.710;6.502;2022-08-26T03:35:35;20.52;;;11.30;;
52554;SDS011;38455;52.710;6.502;2022-08-26T03:38:02;21.10;;;12.38;;
52554;SDS011;38455;52.710;6.502;2022-08-26T03:40:28;26.30;;;11.32;;
52554;SDS011;38455;52.710;6.502;2022-08-26T03:42:57;21.52;;;11.73;;
52554;SDS011;38455;52.710;6.502;2022-08-26T03:45:23;20.08;;;11.90;;
52554;SDS011;38455;52.710;6.502;2022-08-26T03:47:49;18.80;;;10.98;;
52554;SDS011;38455;52.710;6.502;2022-08-26T03:50:16;19.75;;;10.10;;
52554;SDS011;38455;52.710;6.502;2022-08-26T03:52:43;20.08;;;10.38;;
52554;SDS011;38455;52.710;6.502;2022-08-26T03:55:10;24.05;;;11.05;;
52554;SDS011;38455;52.710;6.502;2022-08-26T03:57:36;22.48;;;11.48;;
52554;SDS011;38455;52.710;6.502;2022-08-26T04:00:03;19.35;;;11.02;;
52554;SDS011;38455;52.710;6.502;2022-08-26T04:02:31;17.52;;;10.32;;
52554;SDS011;38455;52.710;6.502;2022-08-26T04:04:57;15.73;;;9.60;;
52554;SDS011;38455;52.710;6.502;2022-08-26T04:07:22;18.77;;;9.68;;
52554;SDS011;38455;52.710;6.502;2022-08-26T04:09:52;25.50;;;10.02;;
52554;SDS011;38455;52.710;6.502;2022-08-26T04:12:19;21.25;;;10.10;;
52554;SDS011;38455;52.710;6.502;2022-08-26T04:14:45;16.02;;;9.32;;
52554;SDS011;38455;52.710;6.502;2022-08-26T04:17:11;23.48;;;10.90;;
52554;SDS011;38455;52.710;6.502;2022-08-26T04:19:37;21.25;;;10.10;;
52554;SDS011;38455;52.710;6.502;2022-08-26T04:22:03;15.85;;;9.45;;
52554;SDS011;38455;52.710;6.502;2022-08-26T04:24:29;18.73;;;10.40;;
52554;SDS011;38455;52.710;6.502;2022-08-26T04:26:55;16.63;;;9.98;;
52554;SDS011;38455;52.710;6.502;2022-08-26T04:29:21;14.40;;;8.82;;
52554;SDS011;38455;52.710;6.502;2022-08-26T04:31:49;16.17;;;10.73;;
52554;SDS011;38455;52.710;6.502;2022-08-26T04:34:15;15.25;;;9.27;;
52554;SDS011;38455;52.710;6.502;2022-08-26T04:36:41;16.77;;;9.07;;
52554;SDS011;38455;52.710;6.502;2022-08-26T04:39:08;16.17;;;10.07;;
52554;SDS011;38455;52.710;6.502;2022-08-26T04:41:42;13.77;;;8.98;;
52554;SDS011;38455;52.710;6.502;2022-08-26T04:44:08;18.02;;;9.82;;
52554;SDS011;38455;52.710;6.502;2022-08-26T04:46:34;13.50;;;8.60;;
52554;SDS011;38455;52.710;6.502;2022-08-26T04:49:01;17.27;;;9.43;;
52554;SDS011;38455;52.710;6.502;2022-08-26T04:51:27;21.02;;;9.35;;
52554;SDS011;38455;52.710;6.502;2022-08-26T04:53:54;12.85;;;7.78;;
52554;SDS011;38455;52.710;6.502;2022-08-26T04:56:21;19.73;;;7.93;;
52554;SDS011;38455;52.710;6.502;2022-08-26T04:58:50;16.13;;;8.23;;
52554;SDS011;38455;52.710;6.502;2022-08-26T05:01:16;15.60;;;8.68;;
52554;SDS011;38455;52.710;6.502;2022-08-26T05:03:42;19.38;;;8.90;;
52554;SDS011;38455;52.710;6.502;2022-08-26T05:06:08;12.32;;;8.07;;
52554;SDS011;38455;52.710;6.502;2022-08-26T05:08:36;18.10;;;7.95;;
52554;SDS011;38455;52.710;6.502;2022-08-26T05:11:03;14.18;;;7.15;;
52554;SDS011;38455;52.710;6.502;2022-08-26T05:13:30;15.95;;;7.38;;
52554;SDS011;38455;52.710;6.502;2022-08-26T05:15:56;15.82;;;7.63;;
52554;SDS011;38455;52.710;6.502;2022-08-26T05:18:25;15.70;;;8.10;;
52554;SDS011;38455;52.710;6.502;2022-08-26T05:20:53;19.70;;;8.07;;
52554;SDS011;38455;52.710;6.502;2022-08-26T05:23:20;19.65;;;7.47;;
52554;SDS011;38455;52.710;6.502;2022-08-26T05:25:47;16.00;;;6.82;;
52554;SDS011;38455;52.710;6.502;2022-08-26T05:28:15;13.65;;;7.30;;
52554;SDS011;38455;52.710;6.502;2022-08-26T05:30:42;15.57;;;6.55;;
52554;SDS011;38455;52.710;6.502;2022-08-26T05:33:09;16.83;;;7.53;;
52554;SDS011;38455;52.710;6.502;2022-08-26T05:35:35;15.68;;;6.95;;
52554;SDS011;38455;52.710;6.502;2022-08-26T05:38:03;12.63;;;6.70;;
52554;SDS011;38455;52.710;6.502;2022-08-26T05:40:50;15.38;;;6.43;;
52554;SDS011;38455;52.710;6.502;2022-08-26T05:43:16;13.23;;;6.43;;
52554;SDS011;38455;52.710;6.502;2022-08-26T05:45:43;12.02;;;6.50;;
52554;SDS011;38455;52.710;6.502;2022-08-26T05:48:11;11.02;;;5.25;;
52554;SDS011;38455;52.710;6.502;2022-08-26T05:50:43;13.77;;;5.97;;
52554;SDS011;38455;52.710;6.502;2022-08-26T05:53:11;10.07;;;5.18;;
52554;SDS011;38455;52.710;6.502;2022-08-26T05:55:42;9.63;;;5.28;;
52554;SDS011;38455;52.710;6.502;2022-08-26T05:58:10;13.23;;;5.70;;
52554;SDS011;38455;52.710;6.502;2022-08-26T06:00:35;13.73;;;5.90;;
52554;SDS011;38455;52.710;6.502;2022-08-26T06:03:01;10.73;;;4.93;;
52554;SDS011;38455;52.710;6.502;2022-08-26T06:05:27;16.90;;;5.70;;
52554;SDS011;38455;52.710;6.502;2022-08-26T06:07:52;14.73;;;5.63;;
52554;SDS011;38455;52.710;6.502;2022-08-26T06:10:44;14.75;;;4.97;;
52554;SDS011;38455;52.710;6.502;2022-08-26T06:13:11;12.80;;;5.43;;
52554;SDS011;38455;52.710;6.502;2022-08-26T06:15:40;12.07;;;4.55;;
52554;SDS011;38455;52.710;6.502;2022-08-26T06:18:07;9.85;;;4.03;;
52554;SDS011;38455;52.710;6.502;2022-08-26T06:20:34;11.90;;;4.75;;
52554;SDS011;38455;52.710;6.502;2022-08-26T06:23:00;12.88;;;5.05;;
52554;SDS011;38455;52.710;6.502;2022-08-26T06:25:45;12.55;;;4.97;;
52554;SDS011;38455;52.710;6.502;2022-08-26T06:28:12;11.90;;;4.38;;
52554;SDS011;38455;52.710;6.502;2022-08-26T06:30:39;9.65;;;4.63;;
52554;SDS011;38455;52.710;6.502;2022-08-26T06:33:05;12.38;;;4.50;;
52554;SDS011;38455;52.710;6.502;2022-08-26T06:35:38;14.43;;;4.10;;
52554;SDS011;38455;52.710;6.502;2022-08-26T06:38:04;8.73;;;3.97;;
52554;SDS011;38455;52.710;6.502;2022-08-26T06:40:30;8.68;;;3.40;;
52554;SDS011;38455;52.710;6.502;2022-08-26T06:42:56;11.82;;;3.22;;
52554;SDS011;38455;52.710;6.502;2022-08-26T06:45:22;14.38;;;4.03;;
52554;SDS011;38455;52.710;6.502;2022-08-26T06:47:48;12.30;;;4.47;;
52554;SDS011;38455;52.710;6.502;2022-08-26T06:50:14;10.27;;;3.33;;
52554;SDS011;38455;52.710;6.502;2022-08-26T06:52:40;12.35;;;3.70;;
52554;SDS011;38455;52.710;6.502;2022-08-26T06:55:06;18.67;;;3.83;;
52554;SDS011;38455;52.710;6.502;2022-08-26T06:57:33;7.68;;;3.13;;
52554;SDS011;38455;52.710;6.502;2022-08-26T07:00:02;21.10;;;4.43;;
52554;SDS011;38455;52.710;6.502;2022-08-26T07:02:31;15.00;;;4.68;;
52554;SDS011;38455;52.710;6.502;2022-08-26T07:04:57;15.18;;;4.22;;
52554;SDS011;38455;52.710;6.502;2022-08-26T07:07:23;10.85;;;3.50;;
52554;SDS011;38455;52.710;6.502;2022-08-26T07:09:48;12.05;;;4.00;;
52554;SDS011;38455;52.710;6.502;2022-08-26T07:12:14;11.02;;;3.72;;
52554;SDS011;38455;52.710;6.502;2022-08-26T07:14:39;13.30;;;3.92;;
52554;SDS011;38455;52.710;6.502;2022-08-26T07:17:05;13.88;;;3.55;;
52554;SDS011;38455;52.710;6.502;2022-08-26T07:19:31;6.50;;;3.13;;
52554;SDS011;38455;52.710;6.502;2022-08-26T07:22:00;9.18;;;3.63;;
52554;SDS011;38455;52.710;6.502;2022-08-26T07:24:28;8.50;;;3.42;;
52554;SDS011;38455;52.710;6.502;2022-08-26T07:27:04;14.18;;;3.35;;
52554;SDS011;38455;52.710;6.502;2022-08-26T07:29:33;11.25;;;3.05;;
52554;SDS011;38455;52.710;6.502;2022-08-26T07:32:00;8.25;;;2.80;;
52554;SDS011;38455;52.710;6.502;2022-08-26T07:34:26;10.35;;;3.20;;
52554;SDS011;38455;52.710;6.502;2022-08-26T07:36:52;8.40;;;3.90;;
52554;SDS011;38455;52.710;6.502;2022-08-26T07:39:17;12.07;;;3.10;;
52554;SDS011;38455;52.710;6.502;2022-08-26T07:41:43;5.90;;;3.40;;
52554;SDS011;38455;52.710;6.502;2022-08-26T07:44:11;7.85;;;3.17;;
52554;SDS011;38455;52.710;6.502;2022-08-26T07:46:38;9.20;;;3.33;;
52554;SDS011;38455;52.710;6.502;2022-08-26T07:49:05;6.50;;;2.75;;
52554;SDS011;38455;52.710;6.502;2022-08-26T07:51:30;8.55;;;3.03;;
52554;SDS011;38455;52.710;6.502;2022-08-26T07:53:57;12.55;;;3.05;;
52554;SDS011;38455;52.710;6.502;2022-08-26T07:56:23;11.82;;;4.03;;
52554;SDS011;38455;52.710;6.502;2022-08-26T07:58:49;9.98;;;2.95;;
52554;SDS011;38455;52.710;6.502;2022-08-26T08:01:16;9.82;;;3.85;;
52554;SDS011;38455;52.710;6.502;2022-08-26T08:03:42;14.55;;;3.33;;
52554;SDS011;38455;52.710;6.502;2022-08-26T08:06:08;13.18;;;3.33;;
52554;SDS011;38455;52.710;6.502;2022-08-26T08:08:33;12.60;;;3.60;;
52554;SDS011;38455;52.710;6.502;2022-08-26T08:10:59;9.98;;;3.67;;
52554;SDS011;38455;52.710;6.502;2022-08-26T08:13:25;9.65;;;3.22;;
52554;SDS011;38455;52.710;6.502;2022-08-26T08:15:51;9.65;;;3.40;;
52554;SDS011;38455;52.710;6.502;2022-08-26T08:18:17;10.15;;;2.83;;
52554;SDS011;38455;52.710;6.502;2022-08-26T08:20:43;12.13;;;3.05;;
52554;SDS011;38455;52.710;6.502;2022-08-26T08:23:09;8.95;;;2.60;;
52554;SDS011;38455;52.710;6.502;2022-08-26T08:25:35;7.32;;;2.40;;
52554;SDS011;38455;52.710;6.502;2022-08-26T08:28:01;11.07;;;2.70;;
52554;SDS011;38455;52.710;6.502;2022-08-26T08:30:27;6.68;;;2.03;;
52554;SDS011;38455;52.710;6.502;2022-08-26T08:32:52;9.73;;;2.33;;
52554;SDS011;38455;52.710;6.502;2022-08-26T08:35:19;10.57;;;2.53;;
52554;SDS011;38455;52.710;6.502;2022-08-26T08:37:46;9.05;;;2.78;;
52554;SDS011;38455;52.710;6.502;2022-08-26T08:40:15;4.28;;;1.60;;
52554;SDS011;38455;52.710;6.502;2022-08-26T08:45:50;6.43;;;1.63;;
52554;SDS011;38455;52.710;6.502;2022-08-26T08:48:21;5.70;;;1.67;;
52554;SDS011;38455;52.710;6.502;2022-08-26T08:50:54;5.85;;;1.63;;
52554;SDS011;38455;52.710;6.502;2022-08-26T08:53:43;8.02;;;2.22;;
52554;SDS011;38455;52.710;6.502;2022-08-26T08:56:28;4.22;;;1.50;;
52554;SDS011;38455;52.710;6.502;2022-08-26T09:07:09;6.57;;;1.90;;
52554;SDS011;38455;52.710;6.502;2022-08-26T09:09:44;10.27;;;1.63;;
52554;SDS011;38455;52.710;6.502;2022-08-26T09:12:21;9.75;;;1.40;;
52554;SDS011;38455;52.710;6.502;2022-08-26T09:20:05;3.35;;;1.08;;
52554;SDS011;38455;52.710;6.502;2022-08-26T09:22:51;5.13;;;1.23;;
52554;SDS011;38455;52.710;6.502;2022-08-26T09:25:17;4.68;;;2.03;;
52554;SDS011;38455;52.710;6.502;2022-08-26T09:27:47;5.47;;;1.73;;
52554;SDS011;38455;52.710;6.502;2022-08-26T09:30:20;6.18;;;1.23;;
52554;SDS011;38455;52.710;6.502;2022-08-26T09:33:00;6.22;;;1.05;;
52554;SDS011;38455;52.710;6.502;2022-08-26T09:37:57;6.07;;;1.20;;
52554;SDS011;38455;52.710;6.502;2022-08-26T09:43:34;3.47;;;1.35;;
52554;SDS011;38455;52.710;6.502;2022-08-26T09:45:46;6.07;;;1.40;;
52554;SDS011;38455;52.710;6.502;2022-08-26T09:50:57;5.57;;;1.20;;
52554;SDS011;38455;52.710;6.502;2022-08-26T09:53:25;5.65;;;1.50;;
52554;SDS011;38455;52.710;6.502;2022-08-26T09:58:52;5.75;;;1.55;;
52554;SDS011;38455;52.710;6.502;2022-08-26T10:01:29;6.07;;;1.15;;
52554;SDS011;38455;52.710;6.502;2022-08-26T10:04:04;5.03;;;1.30;;
52554;SDS011;38455;52.710;6.502;2022-08-26T10:06:55;6.95;;;1.58;;
52554;SDS011;38455;52.710;6.502;2022-08-26T10:09:21;6.60;;;1.43;;
52554;SDS011;38455;52.710;6.502;2022-08-26T10:11:51;10.18;;;1.30;;
52554;SDS011;38455;52.710;6.502;2022-08-26T10:14:27;3.70;;;1.10;;
52554;SDS011;38455;52.710;6.502;2022-08-26T10:17:18;6.33;;;1.43;;
52554;SDS011;38455;52.710;6.502;2022-08-26T10:19:50;4.18;;;1.10;;
52554;SDS011;38455;52.710;6.502;2022-08-26T10:25:02;7.90;;;1.50;;
52554;SDS011;38455;52.710;6.502;2022-08-26T10:30:07;7.95;;;1.42;;
52554;SDS011;38455;52.710;6.502;2022-08-26T10:32:37;4.60;;;1.38;;
52554;SDS011;38455;52.710;6.502;2022-08-26T10:35:05;7.88;;;1.55;;
52554;SDS011;38455;52.710;6.502;2022-08-26T10:37:50;7.53;;;1.50;;
52554;SDS011;38455;52.710;6.502;2022-08-26T10:40:21;7.55;;;1.38;;
52554;SDS011;38455;52.710;6.502;2022-08-26T10:42:52;10.50;;;1.70;;
52554;SDS011;38455;52.710;6.502;2022-08-26T10:45:31;6.60;;;1.50;;
52554;SDS011;38455;52.710;6.502;2022-08-26T10:48:03;3.22;;;1.02;;
52554;SDS011;38455;52.710;6.502;2022-08-26T10:50:34;5.22;;;1.33;;
52554;SDS011;38455;52.710;6.502;2022-08-26T10:56:13;7.45;;;1.65;;
52554;SDS011;38455;52.710;6.502;2022-08-26T10:58:48;4.72;;;1.73;;
52554;SDS011;38455;52.710;6.502;2022-08-26T11:06:41;8.75;;;1.77;;
52554;SDS011;38455;52.710;6.502;2022-08-26T11:09:10;11.02;;;1.83;;
52554;SDS011;38455;52.710;6.502;2022-08-26T11:11:54;6.40;;;1.75;;
52554;SDS011;38455;52.710;6.502;2022-08-26T11:16:50;11.80;;;2.10;;
52554;SDS011;38455;52.710;6.502;2022-08-26T11:22:09;8.27;;;1.70;;
52554;SDS011;38455;52.710;6.502;2022-08-26T11:32:53;8.25;;;1.63;;
52554;SDS011;38455;52.710;6.502;2022-08-26T11:37:50;9.40;;;2.13;;
52554;SDS011;38455;52.710;6.502;2022-08-26T11:42:57;12.50;;;2.17;;
52554;SDS011;38455;52.710;6.502;2022-08-26T11:45:30;23.48;;;3.70;;
52554;SDS011;38455;52.710;6.502;2022-08-26T11:48:17;15.43;;;3.22;;
52554;SDS011;38455;52.710;6.502;2022-08-26T11:50:53;8.38;;;1.90;;
52554;SDS011;38455;52.710;6.502;2022-08-26T11:53:21;6.03;;;1.77;;
52554;SDS011;38455;52.710;6.502;2022-08-26T11:55:47;10.10;;;1.90;;
52554;SDS011;38455;52.710;6.502;2022-08-26T11:58:15;7.18;;;1.80;;
52554;SDS011;38455;52.710;6.502;2022-08-26T12:03:10;7.78;;;2.03;;
52554;SDS011;38455;52.710;6.502;2022-08-26T12:05:43;5.78;;;2.33;;
52554;SDS011;38455;52.710;6.502;2022-08-26T12:08:11;7.13;;;1.45;;
52554;SDS011;38455;52.710;6.502;2022-08-26T12:10:40;16.88;;;2.53;;
52554;SDS011;38455;52.710;6.502;2022-08-26T12:13:06;8.65;;;1.50;;
52554;SDS011;38455;52.710;6.502;2022-08-26T12:15:41;6.63;;;2.08;;
52554;SDS011;38455;52.710;6.502;2022-08-26T12:18:18;11.98;;;1.77;;
52554;SDS011;38455;52.710;6.502;2022-08-26T12:20:47;6.03;;;1.50;;
52554;SDS011;38455;52.710;6.502;2022-08-26T12:26:25;8.38;;;1.60;;
52554;SDS011;38455;52.710;6.502;2022-08-26T12:28:57;5.65;;;1.52;;
52554;SDS011;38455;52.710;6.502;2022-08-26T12:33:51;5.43;;;1.27;;
52554;SDS011;38455;52.710;6.502;2022-08-26T12:36:23;3.92;;;1.40;;
52554;SDS011;38455;52.710;6.502;2022-08-26T12:39:12;5.80;;;1.55;;
52554;SDS011;38455;52.710;6.502;2022-08-26T12:41:50;7.32;;;1.35;;
52554;SDS011;38455;52.710;6.502;2022-08-26T12:47:06;8.88;;;2.00;;
52554;SDS011;38455;52.710;6.502;2022-08-26T12:53:11;5.03;;;1.50;;
52554;SDS011;38455;52.710;6.502;2022-08-26T12:55:52;5.68;;;1.20;;
52554;SDS011;38455;52.710;6.502;2022-08-26T12:58:22;5.38;;;1.15;;
52554;SDS011;38455;52.710;6.502;2022-08-26T13:00:54;2.42;;;1.00;;
52554;SDS011;38455;52.710;6.502;2022-08-26T13:06:22;4.13;;;1.05;;
52554;SDS011;38455;52.710;6.502;2022-08-26T13:11:28;3.60;;;1.33;;
52554;SDS011;38455;52.710;6.502;2022-08-26T13:16:28;2.92;;;1.13;;
52554;SDS011;38455;52.710;6.502;2022-08-26T13:18:57;5.53;;;1.58;;
52554;SDS011;38455;52.710;6.502;2022-08-26T13:21:29;4.25;;;1.15;;
52554;SDS011;38455;52.710;6.502;2022-08-26T13:24:00;3.88;;;1.25;;
52554;SDS011;38455;52.710;6.502;2022-08-26T13:26:29;2.55;;;1.10;;
52554;SDS011;38455;52.710;6.502;2022-08-26T13:28:55;4.00;;;1.00;;
52554;SDS011;38455;52.710;6.502;2022-08-26T13:31:20;6.07;;;1.08;;
52554;SDS011;38455;52.710;6.502;2022-08-26T13:33:46;7.68;;;1.58;;
52554;SDS011;38455;52.710;6.502;2022-08-26T13:36:12;9.27;;;0.88;;
52554;SDS011;38455;52.710;6.502;2022-08-26T13:38:38;6.25;;;1.42;;
52554;SDS011;38455;52.710;6.502;2022-08-26T13:41:04;6.70;;;1.58;;
52554;SDS011;38455;52.710;6.502;2022-08-26T13:43:30;4.10;;;1.20;;
52554;SDS011;38455;52.710;6.502;2022-08-26T13:45:56;5.68;;;1.50;;
52554;SDS011;38455;52.710;6.502;2022-08-26T13:48:22;6.55;;;1.05;;
52554;SDS011;38455;52.710;6.502;2022-08-26T13:50:48;4.47;;;1.10;;
52554;SDS011;38455;52.710;6.502;2022-08-26T13:53:14;5.28;;;1.35;;
52554;SDS011;38455;52.710;6.502;2022-08-26T13:55:41;3.55;;;0.90;;
52554;SDS011;38455;52.710;6.502;2022-08-26T13:58:07;3.55;;;1.17;;
52554;SDS011;38455;52.710;6.502;2022-08-26T14:00:33;3.35;;;0.95;;
52554;SDS011;38455;52.710;6.502;2022-08-26T14:03:00;4.28;;;1.38;;
52554;SDS011;38455;52.710;6.502;2022-08-26T14:05:26;4.07;;;1.20;;
52554;SDS011;38455;52.710;6.502;2022-08-26T14:07:52;1.90;;;0.73;;
52554;SDS011;38455;52.710;6.502;2022-08-26T14:10:18;3.97;;;1.00;;
52554;SDS011;38455;52.710;6.502;2022-08-26T14:12:44;1.90;;;0.93;;
52554;SDS011;38455;52.710;6.502;2022-08-26T14:15:10;4.07;;;1.48;;
52554;SDS011;38455;52.710;6.502;2022-08-26T14:17:40;3.05;;;0.85;;
52554;SDS011;38455;52.710;6.502;2022-08-26T14:20:06;13.55;;;1.13;;
52554;SDS011;38455;52.710;6.502;2022-08-26T14:22:35;4.20;;;1.42;;
52554;SDS011;38455;52.710;6.502;2022-08-26T14:25:03;2.63;;;0.90;;
52554;SDS011;38455;52.710;6.502;2022-08-26T14:27:29;7.05;;;1.25;;
52554;SDS011;38455;52.710;6.502;2022-08-26T14:29:55;5.25;;;1.17;;
52554;SDS011;38455;52.710;6.502;2022-08-26T14:32:24;6.00;;;1.30;;
52554;SDS011;38455;52.710;6.502;2022-08-26T14:34:52;7.72;;;1.35;;
52554;SDS011;38455;52.710;6.502;2022-08-26T14:37:19;4.88;;;1.58;;
52554;SDS011;38455;52.710;6.502;2022-08-26T14:39:45;4.18;;;1.42;;
52554;SDS011;38455;52.710;6.502;2022-08-26T14:42:10;5.68;;;1.67;;
52554;SDS011;38455;52.710;6.502;2022-08-26T14:44:39;3.83;;;1.20;;
52554;SDS011;38455;52.710;6.502;2022-08-26T14:47:07;4.47;;;1.67;;
52554;SDS011;38455;52.710;6.502;2022-08-26T14:49:33;3.30;;;1.08;;
52554;SDS011;38455;52.710;6.502;2022-08-26T14:51:58;5.50;;;1.25;;
52554;SDS011;38455;52.710;6.502;2022-08-26T14:54:24;4.95;;;1.27;;
52554;SDS011;38455;52.710;6.502;2022-08-26T14:59:24;4.35;;;1.70;;
52554;SDS011;38455;52.710;6.502;2022-08-26T15:01:57;5.40;;;1.40;;
52554;SDS011;38455;52.710;6.502;2022-08-26T15:04:24;3.05;;;1.23;;
52554;SDS011;38455;52.710;6.502;2022-08-26T15:06:51;4.93;;;1.23;;
52554;SDS011;38455;52.710;6.502;2022-08-26T15:09:18;5.53;;;2.47;;
52554;SDS011;38455;52.710;6.502;2022-08-26T15:11:44;1.88;;;0.90;;
52554;SDS011;38455;52.710;6.502;2022-08-26T15:14:10;6.68;;;1.50;;
52554;SDS011;38455;52.710;6.502;2022-08-26T15:16:35;4.10;;;1.13;;
52554;SDS011;38455;52.710;6.502;2022-08-26T15:19:01;8.52;;;1.40;;
52554;SDS011;38455;52.710;6.502;2022-08-26T15:21:28;2.40;;;1.20;;
52554;SDS011;38455;52.710;6.502;2022-08-26T15:23:55;4.65;;;1.23;;
52554;SDS011;38455;52.710;6.502;2022-08-26T15:26:20;4.25;;;1.30;;
52554;SDS011;38455;52.710;6.502;2022-08-26T15:28:47;4.78;;;1.45;;
52554;SDS011;38455;52.710;6.502;2022-08-26T15:31:13;4.32;;;1.38;;
52554;SDS011;38455;52.710;6.502;2022-08-26T15:33:38;5.68;;;1.27;;
52554;SDS011;38455;52.710;6.502;2022-08-26T15:36:04;5.85;;;1.30;;
52554;SDS011;38455;52.710;6.502;2022-08-26T15:38:32;4.45;;;1.20;;
52554;SDS011;38455;52.710;6.502;2022-08-26T15:41:00;6.63;;;1.83;;
52554;SDS011;38455;52.710;6.502;2022-08-26T15:43:26;2.30;;;1.02;;
52554;SDS011;38455;52.710;6.502;2022-08-26T15:45:52;6.70;;;1.45;;
52554;SDS011;38455;52.710;6.502;2022-08-26T15:48:18;3.03;;;1.08;;
52554;SDS011;38455;52.710;6.502;2022-08-26T15:50:49;7.97;;;1.58;;
52554;SDS011;38455;52.710;6.502;2022-08-26T15:53:16;7.47;;;1.48;;
52554;SDS011;38455;52.710;6.502;2022-08-26T15:55:43;6.57;;;2.13;;
52554;SDS011;38455;52.710;6.502;2022-08-26T15:58:09;6.97;;;1.58;;
52554;SDS011;38455;52.710;6.502;2022-08-26T16:00:35;5.95;;;1.20;;
52554;SDS011;38455;52.710;6.502;2022-08-26T16:03:01;3.72;;;1.42;;
52554;SDS011;38455;52.710;6.502;2022-08-26T16:05:27;4.70;;;1.33;;
52554;SDS011;38455;52.710;6.502;2022-08-26T16:07:53;7.00;;;1.67;;
52554;SDS011;38455;52.710;6.502;2022-08-26T16:10:19;11.55;;;1.50;;